Pagrindinis puslapis
METAR-TAF:

METAR-TAF

Oro uostai :

Nadis, Fidžis

platuma: 17-45S, ilguma: 177-27E, Aukštis: 13 m

Dabartinis oras

Ataskaita buvo paskelbta 36 minutes, ne 09:00 UTC
Vėjas 5 kt iš Pietryčių
Temperatūra 22°C
Drėgmė 69%
Slėgis 1015 hPa
Matomumas 10 km arba daugiau
Mažai debesys ne aukštis 3000 ft

METAR: NFFN 220900Z 14005KT 9999 FEW030 22/16 Q1015 NOSIG

Laikas: 21:36 (09:36 UTC)

Prognozė

Ataskaita buvo paskelbta 4 valandos ir 32 minutes, ne 05:04 UTC
Prognozė galioja nuo 22 metu 06 UTC su 23 metu 06 UTC
Vėjas 11 kt iš Rytų/Pietryčių
Matomumas 10 km arba daugiau
Mažai debesys ne aukštis 3000 ft

TAF: NFFN 220504Z 2206/2306 12011KT 9999 FEW030

Orai ataskaitas ir orų prognozės (METAR, TAF).

turimą stotys yra geltonos ir raudonos taškus žemėlapyje.

Perkelti pele per norėdami pamatyti stoties vardą.

Tada spustelėkite, norėdami matyti oro stebėjimo ir prognozės.

Norėdami pakeisti žemėlapį: spustelėkite ant žalios mygtukų su juodo kryžiaus žemyn,; žalią mygtuką su brūkšneliu, jei norite nutolinti; arba žalių rodyklių gretimoms žemėlapius.


METAR-TAF: